sensor_id;sensor_type;location;lat;lon;timestamp;P1;durP1;ratioP1;P2;durP2;ratioP2
32250;SDS011;41295;48.518;9.206;2023-01-06T00:01:35;5.38;;;3.78;;
32250;SDS011;41295;48.518;9.206;2023-01-06T00:03:37;7.38;;;4.03;;
32250;SDS011;41295;48.518;9.206;2023-01-06T00:05:40;9.15;;;4.38;;
32250;SDS011;41295;48.518;9.206;2023-01-06T00:07:43;6.25;;;3.85;;
32250;SDS011;41295;48.518;9.206;2023-01-06T00:09:45;8.02;;;4.00;;
32250;SDS011;41295;48.518;9.206;2023-01-06T00:11:48;7.88;;;4.25;;
32250;SDS011;41295;48.518;9.206;2023-01-06T00:13:50;8.05;;;4.35;;
32250;SDS011;41295;48.518;9.206;2023-01-06T00:15:55;6.10;;;3.65;;
32250;SDS011;41295;48.518;9.206;2023-01-06T00:17:57;8.10;;;4.28;;
32250;SDS011;41295;48.518;9.206;2023-01-06T00:20:00;6.60;;;3.70;;
32250;SDS011;41295;48.518;9.206;2023-01-06T00:22:03;6.65;;;3.95;;
32250;SDS011;41295;48.518;9.206;2023-01-06T00:24:06;6.95;;;4.00;;
32250;SDS011;41295;48.518;9.206;2023-01-06T00:26:09;7.88;;;5.20;;
32250;SDS011;41295;48.518;9.206;2023-01-06T00:28:12;8.40;;;5.60;;
32250;SDS011;41295;48.518;9.206;2023-01-06T00:30:15;14.02;;;5.97;;
32250;SDS011;41295;48.518;9.206;2023-01-06T00:32:18;8.93;;;5.20;;
32250;SDS011;41295;48.518;9.206;2023-01-06T00:34:21;5.38;;;3.25;;
32250;SDS011;41295;48.518;9.206;2023-01-06T00:36:24;7.88;;;3.50;;
32250;SDS011;41295;48.518;9.206;2023-01-06T00:38:27;7.25;;;4.28;;
32250;SDS011;41295;48.518;9.206;2023-01-06T00:40:29;9.73;;;5.85;;
32250;SDS011;41295;48.518;9.206;2023-01-06T00:42:32;14.35;;;7.18;;
32250;SDS011;41295;48.518;9.206;2023-01-06T00:44:35;11.23;;;7.60;;
32250;SDS011;41295;48.518;9.206;2023-01-06T00:46:39;11.27;;;6.95;;
32250;SDS011;41295;48.518;9.206;2023-01-06T00:48:43;11.10;;;6.00;;
32250;SDS011;41295;48.518;9.206;2023-01-06T00:51:04;13.43;;;7.00;;
32250;SDS011;41295;48.518;9.206;2023-01-06T00:53:06;10.40;;;6.15;;
32250;SDS011;41295;48.518;9.206;2023-01-06T00:55:09;10.55;;;6.35;;
32250;SDS011;41295;48.518;9.206;2023-01-06T00:57:12;10.05;;;5.78;;
32250;SDS011;41295;48.518;9.206;2023-01-06T00:59:15;9.63;;;5.88;;
32250;SDS011;41295;48.518;9.206;2023-01-06T01:01:19;7.68;;;5.20;;
32250;SDS011;41295;48.518;9.206;2023-01-06T01:03:22;8.55;;;5.07;;
32250;SDS011;41295;48.518;9.206;2023-01-06T01:05:25;8.18;;;4.70;;
32250;SDS011;41295;48.518;9.206;2023-01-06T01:07:28;10.35;;;5.30;;
32250;SDS011;41295;48.518;9.206;2023-01-06T01:09:31;10.63;;;6.15;;
32250;SDS011;41295;48.518;9.206;2023-01-06T01:11:34;10.30;;;5.93;;
32250;SDS011;41295;48.518;9.206;2023-01-06T01:13:54;9.85;;;6.00;;
32250;SDS011;41295;48.518;9.206;2023-01-06T01:15:56;11.90;;;6.78;;
32250;SDS011;41295;48.518;9.206;2023-01-06T01:18:04;9.20;;;5.95;;
32250;SDS011;41295;48.518;9.206;2023-01-06T01:20:09;10.73;;;5.95;;
32250;SDS011;41295;48.518;9.206;2023-01-06T01:22:14;10.60;;;6.93;;
32250;SDS011;41295;48.518;9.206;2023-01-06T01:24:18;12.63;;;6.75;;
32250;SDS011;41295;48.518;9.206;2023-01-06T01:26:21;11.20;;;6.82;;
32250;SDS011;41295;48.518;9.206;2023-01-06T01:28:24;11.98;;;6.32;;
32250;SDS011;41295;48.518;9.206;2023-01-06T01:30:26;8.80;;;5.38;;
32250;SDS011;41295;48.518;9.206;2023-01-06T01:32:29;13.55;;;5.47;;
32250;SDS011;41295;48.518;9.206;2023-01-06T01:34:31;11.88;;;5.55;;
32250;SDS011;41295;48.518;9.206;2023-01-06T01:36:34;8.70;;;5.40;;
32250;SDS011;41295;48.518;9.206;2023-01-06T01:38:38;8.80;;;5.65;;
32250;SDS011;41295;48.518;9.206;2023-01-06T01:40:45;6.00;;;4.30;;
32250;SDS011;41295;48.518;9.206;2023-01-06T01:42:48;8.63;;;4.82;;
32250;SDS011;41295;48.518;9.206;2023-01-06T01:44:53;4.70;;;3.17;;
32250;SDS011;41295;48.518;9.206;2023-01-06T01:46:58;5.70;;;3.60;;
32250;SDS011;41295;48.518;9.206;2023-01-06T01:49:11;4.28;;;3.10;;
32250;SDS011;41295;48.518;9.206;2023-01-06T01:51:18;6.38;;;2.58;;
32250;SDS011;41295;48.518;9.206;2023-01-06T01:53:25;7.07;;;4.70;;
32250;SDS011;41295;48.518;9.206;2023-01-06T01:55:32;8.98;;;4.88;;
32250;SDS011;41295;48.518;9.206;2023-01-06T01:57:38;7.75;;;4.60;;
32250;SDS011;41295;48.518;9.206;2023-01-06T01:59:44;13.05;;;5.28;;
32250;SDS011;41295;48.518;9.206;2023-01-06T02:01:47;11.77;;;5.38;;
32250;SDS011;41295;48.518;9.206;2023-01-06T02:03:51;22.48;;;10.15;;
32250;SDS011;41295;48.518;9.206;2023-01-06T02:05:54;20.10;;;10.70;;
32250;SDS011;41295;48.518;9.206;2023-01-06T02:08:01;14.73;;;8.45;;
32250;SDS011;41295;48.518;9.206;2023-01-06T02:10:12;11.35;;;8.13;;
32250;SDS011;41295;48.518;9.206;2023-01-06T02:12:17;6.13;;;4.63;;
32250;SDS011;41295;48.518;9.206;2023-01-06T02:14:21;7.57;;;5.20;;
32250;SDS011;41295;48.518;9.206;2023-01-06T02:16:26;11.05;;;5.78;;
32250;SDS011;41295;48.518;9.206;2023-01-06T02:18:40;8.20;;;5.45;;
32250;SDS011;41295;48.518;9.206;2023-01-06T02:20:55;6.93;;;4.10;;
32250;SDS011;41295;48.518;9.206;2023-01-06T02:23:21;4.60;;;3.20;;
32250;SDS011;41295;48.518;9.206;2023-01-06T02:25:41;4.70;;;3.20;;
32250;SDS011;41295;48.518;9.206;2023-01-06T02:28:27;4.43;;;2.70;;
32250;SDS011;41295;48.518;9.206;2023-01-06T02:33:35;5.13;;;3.15;;
32250;SDS011;41295;48.518;9.206;2023-01-06T02:35:47;4.50;;;3.20;;
32250;SDS011;41295;48.518;9.206;2023-01-06T02:38:14;3.67;;;3.13;;
32250;SDS011;41295;48.518;9.206;2023-01-06T02:40:30;5.72;;;3.42;;
32250;SDS011;41295;48.518;9.206;2023-01-06T02:42:48;4.35;;;2.88;;
32250;SDS011;41295;48.518;9.206;2023-01-06T02:45:04;4.68;;;2.80;;
32250;SDS011;41295;48.518;9.206;2023-01-06T02:47:18;6.13;;;2.92;;
32250;SDS011;41295;48.518;9.206;2023-01-06T02:49:29;4.38;;;2.75;;
32250;SDS011;41295;48.518;9.206;2023-01-06T02:51:40;4.22;;;2.83;;
32250;SDS011;41295;48.518;9.206;2023-01-06T02:53:51;3.92;;;2.75;;
32250;SDS011;41295;48.518;9.206;2023-01-06T02:56:07;4.20;;;2.40;;
32250;SDS011;41295;48.518;9.206;2023-01-06T02:58:12;2.72;;;2.30;;
32250;SDS011;41295;48.518;9.206;2023-01-06T03:00:20;4.13;;;2.45;;
32250;SDS011;41295;48.518;9.206;2023-01-06T03:02:32;3.58;;;2.25;;
32250;SDS011;41295;48.518;9.206;2023-01-06T03:04:38;3.65;;;2.40;;
32250;SDS011;41295;48.518;9.206;2023-01-06T03:06:46;4.18;;;2.60;;
32250;SDS011;41295;48.518;9.206;2023-01-06T03:08:52;3.63;;;2.30;;
32250;SDS011;41295;48.518;9.206;2023-01-06T03:10:56;3.50;;;2.42;;
32250;SDS011;41295;48.518;9.206;2023-01-06T03:13:01;2.83;;;2.20;;
32250;SDS011;41295;48.518;9.206;2023-01-06T03:15:08;2.92;;;2.20;;
32250;SDS011;41295;48.518;9.206;2023-01-06T03:17:11;4.97;;;2.45;;
32250;SDS011;41295;48.518;9.206;2023-01-06T03:19:15;5.97;;;2.50;;
32250;SDS011;41295;48.518;9.206;2023-01-06T03:21:18;4.85;;;2.80;;
32250;SDS011;41295;48.518;9.206;2023-01-06T03:23:24;4.88;;;2.60;;
32250;SDS011;41295;48.518;9.206;2023-01-06T03:25:27;4.90;;;2.92;;
32250;SDS011;41295;48.518;9.206;2023-01-06T03:27:29;3.88;;;2.42;;
32250;SDS011;41295;48.518;9.206;2023-01-06T03:29:32;4.43;;;2.30;;
32250;SDS011;41295;48.518;9.206;2023-01-06T03:31:37;2.97;;;2.33;;
32250;SDS011;41295;48.518;9.206;2023-01-06T03:33:51;3.85;;;2.42;;
32250;SDS011;41295;48.518;9.206;2023-01-06T03:36:02;4.55;;;2.40;;
32250;SDS011;41295;48.518;9.206;2023-01-06T03:38:13;5.90;;;2.38;;
32250;SDS011;41295;48.518;9.206;2023-01-06T03:40:26;4.85;;;2.63;;
32250;SDS011;41295;48.518;9.206;2023-01-06T03:42:34;5.57;;;2.40;;
32250;SDS011;41295;48.518;9.206;2023-01-06T03:45:00;5.40;;;3.20;;
32250;SDS011;41295;48.518;9.206;2023-01-06T03:47:15;3.53;;;2.63;;
32250;SDS011;41295;48.518;9.206;2023-01-06T03:49:27;4.43;;;3.10;;
32250;SDS011;41295;48.518;9.206;2023-01-06T03:51:38;6.30;;;3.33;;
32250;SDS011;41295;48.518;9.206;2023-01-06T03:53:47;5.07;;;3.20;;
32250;SDS011;41295;48.518;9.206;2023-01-06T03:55:58;6.50;;;3.15;;
32250;SDS011;41295;48.518;9.206;2023-01-06T03:58:07;4.75;;;3.10;;
32250;SDS011;41295;48.518;9.206;2023-01-06T04:00:13;4.75;;;2.92;;
32250;SDS011;41295;48.518;9.206;2023-01-06T04:02:20;5.43;;;2.95;;
32250;SDS011;41295;48.518;9.206;2023-01-06T04:04:23;3.80;;;2.50;;
32250;SDS011;41295;48.518;9.206;2023-01-06T04:06:26;6.03;;;2.70;;
32250;SDS011;41295;48.518;9.206;2023-01-06T04:08:30;7.32;;;2.97;;
32250;SDS011;41295;48.518;9.206;2023-01-06T04:10:32;5.97;;;3.42;;
32250;SDS011;41295;48.518;9.206;2023-01-06T04:12:35;4.78;;;3.22;;
32250;SDS011;41295;48.518;9.206;2023-01-06T04:14:40;6.65;;;3.58;;
32250;SDS011;41295;48.518;9.206;2023-01-06T04:16:42;6.80;;;3.53;;
32250;SDS011;41295;48.518;9.206;2023-01-06T04:18:45;7.60;;;4.20;;
32250;SDS011;41295;48.518;9.206;2023-01-06T04:20:47;6.75;;;3.75;;
32250;SDS011;41295;48.518;9.206;2023-01-06T04:22:51;5.60;;;3.67;;
32250;SDS011;41295;48.518;9.206;2023-01-06T04:24:55;4.22;;;3.20;;
32250;SDS011;41295;48.518;9.206;2023-01-06T04:26:58;3.80;;;2.80;;
32250;SDS011;41295;48.518;9.206;2023-01-06T04:29:00;7.15;;;3.10;;
32250;SDS011;41295;48.518;9.206;2023-01-06T04:31:03;4.38;;;2.85;;
32250;SDS011;41295;48.518;9.206;2023-01-06T04:33:05;4.32;;;3.00;;
32250;SDS011;41295;48.518;9.206;2023-01-06T04:35:08;6.72;;;3.25;;
32250;SDS011;41295;48.518;9.206;2023-01-06T04:37:11;5.90;;;3.08;;
32250;SDS011;41295;48.518;9.206;2023-01-06T04:39:14;5.22;;;3.40;;
32250;SDS011;41295;48.518;9.206;2023-01-06T04:41:18;4.55;;;3.03;;
32250;SDS011;41295;48.518;9.206;2023-01-06T04:43:21;5.00;;;2.75;;
32250;SDS011;41295;48.518;9.206;2023-01-06T04:45:24;7.18;;;2.80;;
32250;SDS011;41295;48.518;9.206;2023-01-06T04:47:27;5.82;;;3.40;;
32250;SDS011;41295;48.518;9.206;2023-01-06T04:49:29;6.55;;;3.08;;
32250;SDS011;41295;48.518;9.206;2023-01-06T04:51:32;5.60;;;2.65;;
32250;SDS011;41295;48.518;9.206;2023-01-06T04:53:35;6.97;;;3.88;;
32250;SDS011;41295;48.518;9.206;2023-01-06T04:55:39;7.05;;;3.70;;
32250;SDS011;41295;48.518;9.206;2023-01-06T04:57:43;6.50;;;3.55;;
32250;SDS011;41295;48.518;9.206;2023-01-06T04:59:46;8.77;;;3.70;;
32250;SDS011;41295;48.518;9.206;2023-01-06T05:01:48;5.93;;;2.90;;
32250;SDS011;41295;48.518;9.206;2023-01-06T05:03:51;5.80;;;2.80;;
32250;SDS011;41295;48.518;9.206;2023-01-06T05:05:54;3.88;;;2.30;;
32250;SDS011;41295;48.518;9.206;2023-01-06T05:07:57;4.03;;;2.50;;
32250;SDS011;41295;48.518;9.206;2023-01-06T05:09:59;2.80;;;2.33;;
32250;SDS011;41295;48.518;9.206;2023-01-06T05:12:02;3.97;;;2.50;;
32250;SDS011;41295;48.518;9.206;2023-01-06T05:14:06;4.32;;;2.63;;
32250;SDS011;41295;48.518;9.206;2023-01-06T05:16:09;3.67;;;2.15;;
32250;SDS011;41295;48.518;9.206;2023-01-06T05:18:15;4.18;;;2.22;;
32250;SDS011;41295;48.518;9.206;2023-01-06T05:20:17;3.88;;;2.20;;
32250;SDS011;41295;48.518;9.206;2023-01-06T05:22:20;3.30;;;1.90;;
32250;SDS011;41295;48.518;9.206;2023-01-06T05:24:23;3.88;;;2.47;;
32250;SDS011;41295;48.518;9.206;2023-01-06T05:26:26;4.25;;;2.38;;
32250;SDS011;41295;48.518;9.206;2023-01-06T05:28:29;2.80;;;1.88;;
32250;SDS011;41295;48.518;9.206;2023-01-06T05:30:34;3.85;;;2.28;;
32250;SDS011;41295;48.518;9.206;2023-01-06T05:32:37;5.70;;;2.10;;
32250;SDS011;41295;48.518;9.206;2023-01-06T05:34:42;4.75;;;2.10;;
32250;SDS011;41295;48.518;9.206;2023-01-06T05:36:45;4.03;;;1.90;;
32250;SDS011;41295;48.518;9.206;2023-01-06T05:38:51;5.20;;;2.10;;
32250;SDS011;41295;48.518;9.206;2023-01-06T05:40:54;2.22;;;1.85;;
32250;SDS011;41295;48.518;9.206;2023-01-06T05:42:57;4.43;;;1.80;;
32250;SDS011;41295;48.518;9.206;2023-01-06T05:45:00;3.88;;;1.85;;
32250;SDS011;41295;48.518;9.206;2023-01-06T05:47:04;2.97;;;1.80;;
32250;SDS011;41295;48.518;9.206;2023-01-06T05:49:07;3.10;;;2.00;;
32250;SDS011;41295;48.518;9.206;2023-01-06T05:51:11;4.03;;;2.42;;
32250;SDS011;41295;48.518;9.206;2023-01-06T05:53:15;4.05;;;2.08;;
32250;SDS011;41295;48.518;9.206;2023-01-06T05:55:18;3.92;;;2.58;;
32250;SDS011;41295;48.518;9.206;2023-01-06T05:57:21;2.97;;;1.98;;
32250;SDS011;41295;48.518;9.206;2023-01-06T05:59:23;2.53;;;2.05;;
32250;SDS011;41295;48.518;9.206;2023-01-06T06:01:27;2.88;;;2.03;;
32250;SDS011;41295;48.518;9.206;2023-01-06T06:03:32;4.68;;;2.40;;
32250;SDS011;41295;48.518;9.206;2023-01-06T06:05:35;5.47;;;2.95;;
32250;SDS011;41295;48.518;9.206;2023-01-06T06:07:38;4.97;;;2.72;;
32250;SDS011;41295;48.518;9.206;2023-01-06T06:09:40;4.22;;;2.55;;
32250;SDS011;41295;48.518;9.206;2023-01-06T06:11:43;3.90;;;2.78;;
32250;SDS011;41295;48.518;9.206;2023-01-06T06:13:46;3.90;;;2.67;;
32250;SDS011;41295;48.518;9.206;2023-01-06T06:15:49;5.18;;;3.00;;
32250;SDS011;41295;48.518;9.206;2023-01-06T06:17:52;4.95;;;2.72;;
32250;SDS011;41295;48.518;9.206;2023-01-06T06:19:56;12.80;;;4.03;;
32250;SDS011;41295;48.518;9.206;2023-01-06T06:21:59;5.85;;;2.95;;
32250;SDS011;41295;48.518;9.206;2023-01-06T06:24:01;3.75;;;2.40;;
32250;SDS011;41295;48.518;9.206;2023-01-06T06:26:04;5.53;;;2.00;;
32250;SDS011;41295;48.518;9.206;2023-01-06T06:28:06;3.83;;;2.38;;
32250;SDS011;41295;48.518;9.206;2023-01-06T06:30:09;5.03;;;2.55;;
32250;SDS011;41295;48.518;9.206;2023-01-06T06:32:12;5.75;;;2.58;;
32250;SDS011;41295;48.518;9.206;2023-01-06T06:34:15;3.00;;;2.10;;
32250;SDS011;41295;48.518;9.206;2023-01-06T06:36:19;4.30;;;2.42;;
32250;SDS011;41295;48.518;9.206;2023-01-06T06:38:22;3.42;;;2.35;;
32250;SDS011;41295;48.518;9.206;2023-01-06T06:40:24;4.38;;;2.53;;
32250;SDS011;41295;48.518;9.206;2023-01-06T06:42:27;3.92;;;1.98;;
32250;SDS011;41295;48.518;9.206;2023-01-06T06:44:30;4.22;;;2.22;;
32250;SDS011;41295;48.518;9.206;2023-01-06T06:46:32;4.00;;;2.00;;
32250;SDS011;41295;48.518;9.206;2023-01-06T06:48:35;4.65;;;1.98;;
32250;SDS011;41295;48.518;9.206;2023-01-06T06:50:37;3.22;;;2.30;;
32250;SDS011;41295;48.518;9.206;2023-01-06T06:52:41;2.47;;;1.80;;
32250;SDS011;41295;48.518;9.206;2023-01-06T06:54:44;2.42;;;1.90;;
32250;SDS011;41295;48.518;9.206;2023-01-06T06:56:46;3.60;;;2.03;;
32250;SDS011;41295;48.518;9.206;2023-01-06T06:58:49;6.03;;;2.20;;
32250;SDS011;41295;48.518;9.206;2023-01-06T07:00:52;4.43;;;2.30;;
32250;SDS011;41295;48.518;9.206;2023-01-06T07:02:54;2.75;;;2.25;;
32250;SDS011;41295;48.518;9.206;2023-01-06T07:04:57;5.43;;;2.20;;
32250;SDS011;41295;48.518;9.206;2023-01-06T07:06:59;3.95;;;1.90;;
32250;SDS011;41295;48.518;9.206;2023-01-06T07:09:03;5.97;;;2.05;;
32250;SDS011;41295;48.518;9.206;2023-01-06T07:11:07;7.05;;;2.28;;
32250;SDS011;41295;48.518;9.206;2023-01-06T07:13:09;4.15;;;2.35;;
32250;SDS011;41295;48.518;9.206;2023-01-06T07:15:12;4.95;;;3.45;;
32250;SDS011;41295;48.518;9.206;2023-01-06T07:17:15;5.28;;;3.80;;
32250;SDS011;41295;48.518;9.206;2023-01-06T07:19:19;5.35;;;3.20;;
32250;SDS011;41295;48.518;9.206;2023-01-06T07:21:22;4.15;;;3.00;;
32250;SDS011;41295;48.518;9.206;2023-01-06T07:23:24;4.47;;;2.65;;
32250;SDS011;41295;48.518;9.206;2023-01-06T07:25:28;5.55;;;2.60;;
32250;SDS011;41295;48.518;9.206;2023-01-06T07:27:31;3.92;;;2.55;;
32250;SDS011;41295;48.518;9.206;2023-01-06T07:29:34;5.03;;;3.00;;
32250;SDS011;41295;48.518;9.206;2023-01-06T07:31:37;3.63;;;2.90;;
32250;SDS011;41295;48.518;9.206;2023-01-06T07:33:39;4.93;;;3.50;;
32250;SDS011;41295;48.518;9.206;2023-01-06T07:35:42;4.93;;;3.70;;
32250;SDS011;41295;48.518;9.206;2023-01-06T07:37:44;6.40;;;3.75;;
32250;SDS011;41295;48.518;9.206;2023-01-06T07:39:47;6.10;;;3.13;;
32250;SDS011;41295;48.518;9.206;2023-01-06T07:41:51;5.35;;;3.60;;
32250;SDS011;41295;48.518;9.206;2023-01-06T07:43:53;5.40;;;4.07;;
32250;SDS011;41295;48.518;9.206;2023-01-06T07:45:56;4.55;;;3.30;;
32250;SDS011;41295;48.518;9.206;2023-01-06T07:47:59;5.05;;;3.38;;
32250;SDS011;41295;48.518;9.206;2023-01-06T07:50:02;7.88;;;3.63;;
32250;SDS011;41295;48.518;9.206;2023-01-06T07:52:05;6.35;;;3.38;;
32250;SDS011;41295;48.518;9.206;2023-01-06T07:54:08;6.80;;;3.38;;
32250;SDS011;41295;48.518;9.206;2023-01-06T07:56:11;5.53;;;3.63;;
32250;SDS011;41295;48.518;9.206;2023-01-06T07:58:15;4.80;;;3.38;;
32250;SDS011;41295;48.518;9.206;2023-01-06T08:00:18;5.65;;;3.53;;
32250;SDS011;41295;48.518;9.206;2023-01-06T08:02:22;5.32;;;3.38;;
32250;SDS011;41295;48.518;9.206;2023-01-06T08:04:24;6.43;;;2.95;;
32250;SDS011;41295;48.518;9.206;2023-01-06T08:06:29;4.85;;;2.75;;
32250;SDS011;41295;48.518;9.206;2023-01-06T08:08:33;5.00;;;3.15;;
32250;SDS011;41295;48.518;9.206;2023-01-06T08:10:38;3.50;;;2.63;;
32250;SDS011;41295;48.518;9.206;2023-01-06T08:12:41;4.45;;;2.85;;
32250;SDS011;41295;48.518;9.206;2023-01-06T08:14:45;5.88;;;3.40;;
32250;SDS011;41295;48.518;9.206;2023-01-06T08:16:48;6.32;;;3.63;;
32250;SDS011;41295;48.518;9.206;2023-01-06T08:18:51;6.45;;;3.50;;
32250;SDS011;41295;48.518;9.206;2023-01-06T08:20:57;9.88;;;3.50;;
32250;SDS011;41295;48.518;9.206;2023-01-06T08:23:01;3.92;;;2.95;;
32250;SDS011;41295;48.518;9.206;2023-01-06T08:25:04;5.07;;;3.10;;
32250;SDS011;41295;48.518;9.206;2023-01-06T08:27:07;7.18;;;3.00;;
32250;SDS011;41295;48.518;9.206;2023-01-06T08:29:09;5.13;;;3.33;;
32250;SDS011;41295;48.518;9.206;2023-01-06T08:31:14;7.10;;;3.67;;
32250;SDS011;41295;48.518;9.206;2023-01-06T08:33:19;6.72;;;3.80;;
32250;SDS011;41295;48.518;9.206;2023-01-06T08:35:24;5.70;;;3.42;;
32250;SDS011;41295;48.518;9.206;2023-01-06T08:37:27;6.32;;;3.30;;
32250;SDS011;41295;48.518;9.206;2023-01-06T08:39:30;5.35;;;3.42;;
32250;SDS011;41295;48.518;9.206;2023-01-06T08:41:32;6.80;;;4.15;;
32250;SDS011;41295;48.518;9.206;2023-01-06T08:43:35;9.43;;;3.42;;
32250;SDS011;41295;48.518;9.206;2023-01-06T08:45:39;4.95;;;3.13;;
32250;SDS011;41295;48.518;9.206;2023-01-06T08:47:43;5.65;;;2.83;;
32250;SDS011;41295;48.518;9.206;2023-01-06T08:49:45;5.20;;;2.95;;
32250;SDS011;41295;48.518;9.206;2023-01-06T08:51:48;5.20;;;2.80;;
32250;SDS011;41295;48.518;9.206;2023-01-06T08:53:54;4.65;;;2.83;;
32250;SDS011;41295;48.518;9.206;2023-01-06T08:55:57;5.63;;;3.08;;
32250;SDS011;41295;48.518;9.206;2023-01-06T08:58:00;7.00;;;2.90;;
32250;SDS011;41295;48.518;9.206;2023-01-06T09:00:02;3.10;;;2.63;;
32250;SDS011;41295;48.518;9.206;2023-01-06T09:02:07;5.18;;;3.40;;
32250;SDS011;41295;48.518;9.206;2023-01-06T09:04:12;6.68;;;3.60;;
32250;SDS011;41295;48.518;9.206;2023-01-06T09:06:16;10.10;;;4.00;;
32250;SDS011;41295;48.518;9.206;2023-01-06T09:08:20;6.00;;;3.75;;
32250;SDS011;41295;48.518;9.206;2023-01-06T09:10:22;5.30;;;2.97;;
32250;SDS011;41295;48.518;9.206;2023-01-06T09:12:25;5.25;;;3.22;;
32250;SDS011;41295;48.518;9.206;2023-01-06T09:14:28;6.68;;;3.72;;
32250;SDS011;41295;48.518;9.206;2023-01-06T09:16:30;6.75;;;3.58;;
32250;SDS011;41295;48.518;9.206;2023-01-06T09:18:33;6.25;;;3.40;;
32250;SDS011;41295;48.518;9.206;2023-01-06T09:20:37;5.63;;;3.65;;
32250;SDS011;41295;48.518;9.206;2023-01-06T09:22:40;5.82;;;3.45;;
32250;SDS011;41295;48.518;9.206;2023-01-06T09:24:42;5.95;;;3.42;;
32250;SDS011;41295;48.518;9.206;2023-01-06T09:26:45;5.03;;;3.67;;
32250;SDS011;41295;48.518;9.206;2023-01-06T09:28:47;5.15;;;3.28;;
32250;SDS011;41295;48.518;9.206;2023-01-06T09:30:50;5.90;;;3.00;;
32250;SDS011;41295;48.518;9.206;2023-01-06T09:32:53;6.95;;;3.40;;
32250;SDS011;41295;48.518;9.206;2023-01-06T09:34:56;8.52;;;5.03;;
32250;SDS011;41295;48.518;9.206;2023-01-06T09:37:00;10.35;;;5.88;;
32250;SDS011;41295;48.518;9.206;2023-01-06T09:39:02;12.18;;;7.40;;
32250;SDS011;41295;48.518;9.206;2023-01-06T09:43:45;8.63;;;5.63;;
32250;SDS011;41295;48.518;9.206;2023-01-06T09:45:52;10.13;;;4.95;;
32250;SDS011;41295;48.518;9.206;2023-01-06T09:47:57;6.22;;;4.32;;
32250;SDS011;41295;48.518;9.206;2023-01-06T09:50:04;5.45;;;3.47;;
32250;SDS011;41295;48.518;9.206;2023-01-06T09:52:14;6.72;;;3.83;;
32250;SDS011;41295;48.518;9.206;2023-01-06T09:54:23;9.63;;;3.63;;
32250;SDS011;41295;48.518;9.206;2023-01-06T09:56:30;7.50;;;4.57;;
32250;SDS011;41295;48.518;9.206;2023-01-06T09:58:34;9.55;;;4.68;;
32250;SDS011;41295;48.518;9.206;2023-01-06T10:00:40;9.25;;;5.00;;
32250;SDS011;41295;48.518;9.206;2023-01-06T10:02:45;14.70;;;6.85;;
32250;SDS011;41295;48.518;9.206;2023-01-06T10:04:47;12.65;;;6.95;;
32250;SDS011;41295;48.518;9.206;2023-01-06T10:06:51;11.13;;;5.35;;
32250;SDS011;41295;48.518;9.206;2023-01-06T10:09:09;8.97;;;5.00;;
32250;SDS011;41295;48.518;9.206;2023-01-06T10:11:24;13.25;;;6.28;;
32250;SDS011;41295;48.518;9.206;2023-01-06T10:13:38;7.85;;;4.35;;
32250;SDS011;41295;48.518;9.206;2023-01-06T10:15:55;4.10;;;2.75;;
32250;SDS011;41295;48.518;9.206;2023-01-06T10:18:08;5.78;;;3.80;;
32250;SDS011;41295;48.518;9.206;2023-01-06T10:20:28;5.57;;;2.97;;
32250;SDS011;41295;48.518;9.206;2023-01-06T10:22:42;5.45;;;3.28;;
32250;SDS011;41295;48.518;9.206;2023-01-06T10:24:55;4.93;;;2.88;;
32250;SDS011;41295;48.518;9.206;2023-01-06T10:29:16;3.87;;;2.47;;
32250;SDS011;41295;48.518;9.206;2023-01-06T10:31:22;3.78;;;2.72;;
32250;SDS011;41295;48.518;9.206;2023-01-06T10:33:27;7.78;;;2.55;;
32250;SDS011;41295;48.518;9.206;2023-01-06T10:35:32;3.35;;;1.95;;
32250;SDS011;41295;48.518;9.206;2023-01-06T10:37:35;3.80;;;2.95;;
32250;SDS011;41295;48.518;9.206;2023-01-06T10:39:41;4.00;;;1.85;;
32250;SDS011;41295;48.518;9.206;2023-01-06T10:41:51;3.17;;;1.80;;
32250;SDS011;41295;48.518;9.206;2023-01-06T10:44:19;2.70;;;1.90;;
32250;SDS011;41295;48.518;9.206;2023-01-06T10:46:30;2.55;;;1.63;;
32250;SDS011;41295;48.518;9.206;2023-01-06T10:48:35;1.30;;;1.10;;
32250;SDS011;41295;48.518;9.206;2023-01-06T10:50:40;2.58;;;1.30;;
32250;SDS011;41295;48.518;9.206;2023-01-06T10:52:43;1.50;;;1.30;;
32250;SDS011;41295;48.518;9.206;2023-01-06T10:54:47;1.42;;;1.10;;
32250;SDS011;41295;48.518;9.206;2023-01-06T10:56:55;1.60;;;1.08;;
32250;SDS011;41295;48.518;9.206;2023-01-06T10:59:05;4.50;;;2.38;;
32250;SDS011;41295;48.518;9.206;2023-01-06T11:01:09;4.30;;;2.15;;
32250;SDS011;41295;48.518;9.206;2023-01-06T11:03:13;3.75;;;2.35;;
32250;SDS011;41295;48.518;9.206;2023-01-06T11:05:33;4.82;;;2.42;;
32250;SDS011;41295;48.518;9.206;2023-01-06T11:07:36;1.88;;;1.50;;
32250;SDS011;41295;48.518;9.206;2023-01-06T11:09:40;5.40;;;2.53;;
32250;SDS011;41295;48.518;9.206;2023-01-06T11:11:45;3.03;;;2.10;;
32250;SDS011;41295;48.518;9.206;2023-01-06T11:13:51;4.60;;;2.83;;
32250;SDS011;41295;48.518;9.206;2023-01-06T11:15:55;4.05;;;2.55;;
32250;SDS011;41295;48.518;9.206;2023-01-06T11:18:01;6.00;;;2.75;;
32250;SDS011;41295;48.518;9.206;2023-01-06T11:20:05;1.95;;;1.30;;
32250;SDS011;41295;48.518;9.206;2023-01-06T11:24:47;2.17;;;1.30;;
32250;SDS011;41295;48.518;9.206;2023-01-06T11:26:54;4.07;;;1.30;;
32250;SDS011;41295;48.518;9.206;2023-01-06T11:29:00;1.83;;;1.20;;
32250;SDS011;41295;48.518;9.206;2023-01-06T11:31:20;1.55;;;0.93;;
32250;SDS011;41295;48.518;9.206;2023-01-06T11:33:26;1.33;;;1.20;;
32250;SDS011;41295;48.518;9.206;2023-01-06T11:35:33;1.70;;;1.30;;
32250;SDS011;41295;48.518;9.206;2023-01-06T11:37:37;2.15;;;1.50;;
32250;SDS011;41295;48.518;9.206;2023-01-06T11:39:42;2.67;;;1.63;;
32250;SDS011;41295;48.518;9.206;2023-01-06T11:41:50;1.17;;;0.82;;
32250;SDS011;41295;48.518;9.206;2023-01-06T11:43:54;1.05;;;0.80;;
32250;SDS011;41295;48.518;9.206;2023-01-06T11:46:08;2.55;;;0.80;;
32250;SDS011;41295;48.518;9.206;2023-01-06T11:48:15;0.70;;;0.68;;
32250;SDS011;41295;48.518;9.206;2023-01-06T11:50:20;1.23;;;0.80;;
32250;SDS011;41295;48.518;9.206;2023-01-06T11:52:24;1.10;;;0.80;;
32250;SDS011;41295;48.518;9.206;2023-01-06T11:54:32;2.28;;;0.80;;
32250;SDS011;41295;48.518;9.206;2023-01-06T11:56:37;0.60;;;0.60;;
32250;SDS011;41295;48.518;9.206;2023-01-06T11:58:43;1.40;;;1.17;;
32250;SDS011;41295;48.518;9.206;2023-01-06T12:00:54;1.10;;;1.00;;
32250;SDS011;41295;48.518;9.206;2023-01-06T12:03:11;1.67;;;1.33;;
32250;SDS011;41295;48.518;9.206;2023-01-06T12:05:24;1.58;;;1.02;;
32250;SDS011;41295;48.518;9.206;2023-01-06T12:07:37;1.63;;;1.30;;
32250;SDS011;41295;48.518;9.206;2023-01-06T12:09:44;1.70;;;1.10;;
32250;SDS011;41295;48.518;9.206;2023-01-06T12:11:49;1.42;;;1.00;;
32250;SDS011;41295;48.518;9.206;2023-01-06T12:13:53;2.08;;;1.15;;
32250;SDS011;41295;48.518;9.206;2023-01-06T12:16:14;1.42;;;0.80;;
32250;SDS011;41295;48.518;9.206;2023-01-06T12:18:26;2.55;;;1.30;;
32250;SDS011;41295;48.518;9.206;2023-01-06T12:20:33;1.50;;;1.00;;
32250;SDS011;41295;48.518;9.206;2023-01-06T12:22:39;1.75;;;1.20;;
32250;SDS011;41295;48.518;9.206;2023-01-06T12:24:44;2.00;;;1.10;;
32250;SDS011;41295;48.518;9.206;2023-01-06T12:26:49;1.48;;;0.80;;
32250;SDS011;41295;48.518;9.206;2023-01-06T12:28:53;0.80;;;0.80;;
32250;SDS011;41295;48.518;9.206;2023-01-06T12:30:59;1.17;;;0.77;;
32250;SDS011;41295;48.518;9.206;2023-01-06T12:33:09;1.73;;;1.00;;
32250;SDS011;41295;48.518;9.206;2023-01-06T12:35:17;0.88;;;0.80;;
32250;SDS011;41295;48.518;9.206;2023-01-06T12:37:25;0.90;;;0.85;;
32250;SDS011;41295;48.518;9.206;2023-01-06T12:39:34;3.15;;;1.10;;
32250;SDS011;41295;48.518;9.206;2023-01-06T12:41:45;0.70;;;0.65;;
32250;SDS011;41295;48.518;9.206;2023-01-06T12:43:53;0.57;;;0.50;;
32250;SDS011;41295;48.518;9.206;2023-01-06T12:46:01;4.93;;;0.75;;